Mon, 15 Aug 2022 22:13:40 UTC | login

Information for RPM brotli-1.0.9-5.el9.i686.rpm

ID102907
Namebrotli
Version1.0.9
Release5.el9
Epoch
Archi686
SummaryLossless compression algorithm
DescriptionBrotli is a generic-purpose lossless compression algorithm that compresses data using a combination of a modern variant of the LZ77 algorithm, Huffman coding and 2nd order context modeling, with a compression ratio comparable to the best currently available general-purpose compression methods. It is similar in speed with deflate but offers more dense compression.
Build Time2021-04-15 22:50:05 GMT
Size332,476
20c98d8d949042a388711be3ad6a19f2
LicenseMIT
Buildrootc9s-build-22245-789
Provides
brotli = 1.0.9-5.el9
brotli(x86-32) = 1.0.9-5.el9
Obsoletes No Obsoletes
Conflicts No Conflicts
Requires
libbrotli(x86-32) = 1.0.9-5.el9
libc.so.6
libc.so.6(GLIBC_2.0)
libc.so.6(GLIBC_2.1)
libc.so.6(GLIBC_2.1.3)
libc.so.6(GLIBC_2.3.4)
libc.so.6(GLIBC_2.33)
libc.so.6(GLIBC_2.4)
libm.so.6
libm.so.6(GLIBC_2.29)
rpmlib(CompressedFileNames) <= 3.0.4-1
rpmlib(FileDigests) <= 4.6.0-1
rpmlib(PayloadFilesHavePrefix) <= 4.0-1
rpmlib(PayloadIsZstd) <= 5.4.18-1
rtld(GNU_HASH)
Recommends No Recommends
Suggests No Suggests
Supplements No Supplements
Enhances No Enhances
Files
1 through 4 of 4
Name ascending sort Size
/usr/bin/brotli788,388
/usr/lib/.build-id0
/usr/lib/.build-id/cc0
/usr/lib/.build-id/cc/e30e7232dea04f4cc80bdde93e941cd616e4f326
Component of
Page:
1 through 50 of 2377 >>>
Buildroot descending sort Created State
c9s-build-179814-26460 2021-08-17 09:23:28 expired
c9s-build-179570-26133 2021-08-16 14:54:08 expired
c9s-build-179496-26063 2021-08-16 12:08:13 expired
c9s-build-179356-26035 2021-08-16 09:12:38 expired
c9s-build-179338-26035 2021-08-16 09:04:30 expired
c9s-build-179225-25981 2021-08-16 06:35:54 expired
c9s-build-179109-25870 2021-08-13 16:52:28 expired
c9s-build-179101-25842 2021-08-13 16:41:35 expired
c9s-build-179001-25827 2021-08-13 12:27:28 expired
c9s-build-178984-25804 2021-08-13 10:21:40 expired
c9s-build-168228-25554 2021-08-12 11:50:22 expired
c9s-build-168205-25554 2021-08-12 11:32:06 expired
c9s-build-168201-25554 2021-08-12 11:26:16 expired
c9s-build-168195-25554 2021-08-12 11:16:03 expired
c9s-build-168187-25554 2021-08-12 11:14:46 expired
c9s-build-168183-25554 2021-08-12 11:10:58 expired
c9s-build-168176-25554 2021-08-12 10:59:07 expired
c9s-build-167961-25388 2021-08-11 20:33:57 expired
c9s-build-167908-25388 2021-08-11 14:59:33 expired
c9s-build-167895-25374 2021-08-11 14:31:46 expired
c9s-build-167889-25374 2021-08-11 14:28:55 expired
c9s-build-167846-25283 2021-08-11 10:59:39 expired
c9s-build-side-262-stack-gate-167834-25263 2021-08-11 09:36:09 expired
c9s-build-167778-25231 2021-08-11 08:41:12 expired
c9s-build-167520-25147 2021-08-10 14:41:58 expired
c9s-build-167500-25147 2021-08-10 13:14:11 expired
c9s-build-side-264-stack-gate-157245-24760 2021-08-09 19:46:29 expired
c9s-build-side-264-stack-gate-157222-24760 2021-08-09 19:44:21 expired
c9s-build-side-264-stack-gate-157207-24760 2021-08-09 19:43:18 expired
c9s-build-side-264-stack-gate-157148-24760 2021-08-09 19:38:36 expired
c9s-build-side-264-stack-gate-157090-24758 2021-08-09 19:34:44 expired
c9s-build-side-264-stack-gate-157017-24755 2021-08-09 19:32:05 expired
c9s-build-side-264-stack-gate-156984-24753 2021-08-09 19:30:51 expired
c9s-build-side-264-stack-gate-156975-24753 2021-08-09 19:30:42 expired
c9s-build-side-264-stack-gate-156924-24750 2021-08-09 19:29:22 expired
c9s-build-side-264-stack-gate-156863-24748 2021-08-09 19:27:24 expired
c9s-build-side-264-stack-gate-156811-24744 2021-08-09 19:24:34 expired
c9s-build-side-264-stack-gate-156756-24732 2021-08-09 19:22:28 expired
c9s-build-156684-24668 2021-08-09 17:10:01 expired
c9s-build-156661-24656 2021-08-09 15:01:17 expired
c9s-build-156648-24656 2021-08-09 14:46:11 expired
c9s-build-156630-24644 2021-08-09 14:00:03 expired
c9s-build-156570-24596 2021-08-09 12:57:04 expired
c9s-build-156557-24572 2021-08-09 12:40:28 expired
c9s-build-156552-24572 2021-08-09 12:39:52 expired
c9s-build-156539-24560 2021-08-09 12:28:59 expired
c9s-build-156532-24548 2021-08-09 12:23:28 expired
c9s-build-156526-24548 2021-08-09 12:19:26 expired
c9s-build-156478-24488 2021-08-09 11:54:16 expired
c9s-build-156442-24476 2021-08-09 11:47:09 expired